Terminal Aerodrome Forecast
Issued by NWS Billings, MT

Home | Current Version | Previous Version | Graphics & Text | Print | Product List | Glossary On
Versions: 1 2 3 4 5 6 7 8 9 10 11 12 13 14 15
000
FTUS45 KBYZ 201128
TAFMLS
TAF
KMLS 201128Z 2012/2112 15008KT P6SM SCT150
     FM210000 26022G32KT P6SM BKN120
     FM210200 30029G44KT P6SM VCSH SCT050 BKN080
     FM210700 26020G30KT P6SM FEW100=

USA.gov is the U.S. government's official web portal to all federal, state and local government web resources and services.